createdAt,value
2023-02-17T00:00:40.601Z,47.00
2023-02-17T00:01:55.139Z,46.90
2023-02-17T00:02:58.892Z,44.40
2023-02-17T00:04:02.202Z,42.90
2023-02-17T00:05:06.819Z,45.00
2023-02-17T00:06:11.456Z,41.30
2023-02-17T00:07:14.381Z,44.80
2023-02-17T00:08:17.312Z,46.70
2023-02-17T00:09:20.428Z,45.30
2023-02-17T00:10:23.209Z,46.00
2023-02-17T00:11:28.398Z,44.60
2023-02-17T00:12:31.450Z,41.90
2023-02-17T00:13:34.608Z,43.00
2023-02-17T00:14:40.138Z,44.20
2023-02-17T00:15:43.067Z,42.20
2023-02-17T00:16:46.176Z,43.00
2023-02-17T00:17:49.068Z,43.80
2023-02-17T00:18:58.350Z,42.70
2023-02-17T00:20:01.442Z,42.10
2023-02-17T00:21:15.663Z,42.90
2023-02-17T00:22:18.707Z,43.00
2023-02-17T00:23:21.615Z,44.00
2023-02-17T00:24:26.150Z,41.60
2023-02-17T00:25:29.282Z,41.70
2023-02-17T00:26:32.232Z,41.10
2023-02-17T00:27:35.366Z,41.60
2023-02-17T00:28:38.425Z,41.60
2023-02-17T00:29:41.393Z,41.20
2023-02-17T00:30:44.509Z,41.50
2023-02-17T00:31:48.134Z,42.90
2023-02-17T00:32:52.409Z,41.90
2023-02-17T00:33:56.666Z,42.90
2023-02-17T00:34:59.653Z,42.90
2023-02-17T00:36:07.928Z,42.20
2023-02-17T00:37:11.274Z,41.40
2023-02-17T00:38:14.389Z,41.80
2023-02-17T00:39:17.934Z,42.00
2023-02-17T00:40:21.500Z,43.20
2023-02-17T00:41:28.894Z,41.10
2023-02-17T00:42:33.810Z,43.50
2023-02-17T00:43:36.794Z,40.90
2023-02-17T00:44:39.842Z,42.60
2023-02-17T00:45:42.794Z,42.30
2023-02-17T00:46:47.034Z,41.00
2023-02-17T00:47:50.031Z,40.20
2023-02-17T00:48:53.622Z,41.30
2023-02-17T00:49:57.072Z,43.00
2023-02-17T00:51:02.625Z,41.90
2023-02-17T00:52:05.612Z,39.90
2023-02-17T00:53:09.931Z,39.40
2023-02-17T00:54:14.758Z,39.40
2023-02-17T00:55:18.214Z,39.50
2023-02-17T00:56:21.083Z,39.10
2023-02-17T00:57:24.851Z,39.00
2023-02-17T00:58:27.953Z,39.20
2023-02-17T00:59:31.110Z,39.20
2023-02-17T01:00:34.100Z,37.00
2023-02-17T01:01:38.400Z,38.60
2023-02-17T01:02:41.505Z,38.40
2023-02-17T01:03:44.519Z,38.40
2023-02-17T01:04:47.853Z,37.40
2023-02-17T01:05:51.970Z,37.00
2023-02-17T01:06:55.027Z,36.90
2023-02-17T01:07:59.880Z,37.50
2023-02-17T01:09:06.725Z,35.50
2023-02-17T01:10:10.383Z,35.20
2023-02-17T01:11:18.811Z,35.60
2023-02-17T01:12:22.333Z,37.20
2023-02-17T01:13:25.735Z,34.90
2023-02-17T01:14:28.665Z,35.00
2023-02-17T01:15:33.176Z,34.30
2023-02-17T01:16:39.355Z,35.80
2023-02-17T01:17:42.478Z,35.00
2023-02-17T01:18:45.753Z,33.30
2023-02-17T01:19:48.735Z,34.80
2023-02-17T01:20:52.734Z,32.80
2023-02-17T01:21:55.677Z,34.00
2023-02-17T01:22:58.531Z,33.10
2023-02-17T01:24:04.685Z,33.00
2023-02-17T01:25:08.288Z,33.30
2023-02-17T01:26:18.889Z,32.50
2023-02-17T01:27:21.845Z,32.80
2023-02-17T01:28:24.822Z,32.00
2023-02-17T01:29:28.736Z,32.80
2023-02-17T01:30:32.162Z,30.00
2023-02-17T01:31:36.081Z,31.40
2023-02-17T01:32:39.062Z,29.10
2023-02-17T01:33:41.989Z,30.90
2023-02-17T01:34:45.259Z,30.50
2023-02-17T01:35:48.319Z,28.80
2023-02-17T01:36:51.516Z,29.00
2023-02-17T01:37:54.437Z,29.20
2023-02-17T01:39:00.128Z,29.20
2023-02-17T01:40:04.282Z,28.70
2023-02-17T01:41:09.613Z,27.70
2023-02-17T01:42:20.120Z,29.00
2023-02-17T01:43:25.085Z,27.70
2023-02-17T01:44:32.187Z,27.70
2023-02-17T01:45:41.614Z,28.40
2023-02-17T01:46:52.767Z,27.00
2023-02-17T01:48:02.093Z,25.70
2023-02-17T01:49:15.590Z,26.10
2023-02-17T01:50:22.599Z,26.80
2023-02-17T01:51:30.562Z,26.90
2023-02-17T01:52:33.540Z,27.40
2023-02-17T01:53:48.692Z,28.30
2023-02-17T01:55:07.001Z,25.10
2023-02-17T01:56:11.925Z,25.00
2023-02-17T01:57:18.219Z,25.20
2023-02-17T01:58:24.883Z,24.20
2023-02-17T01:59:29.931Z,24.90
2023-02-17T02:00:34.941Z,26.40
2023-02-17T02:01:39.233Z,26.40
2023-02-17T02:02:46.144Z,24.60
2023-02-17T02:03:52.251Z,25.40
2023-02-17T02:04:55.671Z,24.80
2023-02-17T02:06:00.932Z,26.50
2023-02-17T02:07:10.688Z,24.60
2023-02-17T02:08:15.039Z,23.80
2023-02-17T02:09:22.355Z,23.40
2023-02-17T02:10:25.604Z,23.50
2023-02-17T02:11:28.986Z,22.80
2023-02-17T02:12:35.484Z,23.50
2023-02-17T02:13:38.412Z,22.60
2023-02-17T02:14:41.313Z,22.80
2023-02-17T02:15:54.175Z,23.70
2023-02-17T02:17:29.018Z,25.20
2023-02-17T02:19:02.141Z,24.00
2023-02-17T02:20:10.919Z,22.50
2023-02-17T02:21:45.658Z,21.00
2023-02-17T02:22:52.708Z,21.50
2023-02-17T02:24:19.232Z,22.10
2023-02-17T02:25:50.517Z,21.70
2023-02-17T02:27:09.931Z,22.00
2023-02-17T02:28:40.153Z,22.10
2023-02-17T02:29:55.229Z,25.00
2023-02-17T02:31:50.274Z,21.10
2023-02-17T02:33:18.688Z,21.10
2023-02-17T02:34:37.136Z,20.50
2023-02-17T02:35:59.962Z,20.70
2023-02-17T02:37:13.080Z,20.00
2023-02-17T02:38:45.858Z,19.70
2023-02-17T02:39:52.680Z,20.00
2023-02-17T02:41:17.925Z,20.70
2023-02-17T02:42:25.044Z,20.70
2023-02-17T02:43:30.114Z,21.20
2023-02-17T02:44:33.098Z,20.20
2023-02-17T02:45:36.153Z,20.20
2023-02-17T02:46:39.235Z,19.90
2023-02-17T02:47:53.510Z,20.80
2023-02-17T02:49:00.688Z,20.30
2023-02-17T02:50:03.825Z,19.70
2023-02-17T02:51:19.048Z,20.60
2023-02-17T02:52:51.418Z,19.20
2023-02-17T02:54:08.691Z,19.50
2023-02-17T02:55:18.078Z,19.30
2023-02-17T02:56:52.576Z,19.80
2023-02-17T02:58:43.225Z,22.00
2023-02-17T02:59:57.060Z,19.90
2023-02-17T03:01:29.625Z,18.50
2023-02-17T03:02:48.274Z,20.50
2023-02-17T03:04:26.670Z,20.20
2023-02-17T03:05:53.444Z,19.30
2023-02-17T03:07:05.931Z,20.40
2023-02-17T03:08:14.331Z,19.30
2023-02-17T03:09:21.503Z,19.50
2023-02-17T03:10:24.643Z,19.60
2023-02-17T03:11:33.903Z,20.00
2023-02-17T03:12:39.099Z,19.60
2023-02-17T03:13:42.603Z,19.50
2023-02-17T03:14:50.164Z,19.50
2023-02-17T03:15:53.431Z,18.20
2023-02-17T03:16:56.525Z,19.50
2023-02-17T03:18:02.869Z,19.90
2023-02-17T03:19:06.914Z,20.60
2023-02-17T03:20:11.005Z,20.10
2023-02-17T03:21:17.506Z,20.30
2023-02-17T03:22:31.753Z,20.60
2023-02-17T03:23:34.901Z,21.00
2023-02-17T03:24:37.882Z,21.50
2023-02-17T03:25:45.028Z,20.50
2023-02-17T03:26:48.991Z,21.30
2023-02-17T03:27:53.277Z,21.40
2023-02-17T03:28:56.559Z,21.30
2023-02-17T03:29:59.557Z,21.70
2023-02-17T03:31:02.710Z,21.30
2023-02-17T03:32:06.741Z,22.60
2023-02-17T03:33:09.792Z,22.50
2023-02-17T03:34:12.948Z,21.90
2023-02-17T03:35:15.921Z,23.70
2023-02-17T03:36:18.914Z,21.50
2023-02-17T03:37:22.627Z,22.40
2023-02-17T03:38:25.607Z,22.40
2023-02-17T03:39:28.771Z,23.10
2023-02-17T03:40:31.670Z,22.90
2023-02-17T03:41:34.728Z,24.20
2023-02-17T03:42:37.652Z,23.70
2023-02-17T03:43:40.638Z,23.20
2023-02-17T03:44:43.740Z,23.90
2023-02-17T03:45:46.771Z,23.70
2023-02-17T03:46:49.830Z,23.80
2023-02-17T03:47:52.746Z,24.30
2023-02-17T03:48:55.718Z,24.70
2023-02-17T03:49:58.735Z,22.90
2023-02-17T03:51:14.436Z,24.10
2023-02-17T03:52:18.017Z,23.90
2023-02-17T03:53:21.056Z,23.70
2023-02-17T03:54:23.954Z,23.40
2023-02-17T03:55:27.244Z,23.70
2023-02-17T03:56:30.238Z,24.40
2023-02-17T03:57:34.784Z,23.80
2023-02-17T03:58:38.960Z,24.20
2023-02-17T03:59:42.049Z,24.30
2023-02-17T04:00:45.212Z,24.90
2023-02-17T04:01:48.244Z,24.40
2023-02-17T04:02:51.262Z,24.70
2023-02-17T04:03:54.339Z,24.30
2023-02-17T04:04:57.314Z,24.10
2023-02-17T04:06:00.517Z,25.10
2023-02-17T04:07:03.596Z,25.90
2023-02-17T04:08:06.492Z,26.50
2023-02-17T04:09:09.476Z,25.40
2023-02-17T04:10:12.380Z,26.30
2023-02-17T04:11:15.657Z,25.60
2023-02-17T04:12:18.565Z,25.50
2023-02-17T04:13:22.308Z,24.40
2023-02-17T04:14:25.246Z,26.30
2023-02-17T04:15:30.008Z,26.00
2023-02-17T04:16:33.279Z,25.50
2023-02-17T04:17:37.654Z,26.20
2023-02-17T04:18:40.704Z,26.10
2023-02-17T04:19:43.590Z,26.00
2023-02-17T04:20:49.571Z,26.20
2023-02-17T04:21:52.881Z,25.60
2023-02-17T04:22:55.797Z,24.80
2023-02-17T04:24:01.974Z,26.30
2023-02-17T04:25:05.140Z,26.20
2023-02-17T04:26:09.136Z,25.50
2023-02-17T04:27:12.338Z,26.30
2023-02-17T04:28:16.406Z,25.60
2023-02-17T04:29:19.365Z,24.70
2023-02-17T04:30:22.269Z,24.90
2023-02-17T04:31:26.129Z,25.50
2023-02-17T04:32:29.345Z,25.80
2023-02-17T04:33:32.553Z,26.50
2023-02-17T04:34:35.493Z,26.50
2023-02-17T04:35:38.875Z,26.40
2023-02-17T04:36:44.194Z,24.00
2023-02-17T04:37:47.440Z,26.40
2023-02-17T04:38:50.333Z,25.90
2023-02-17T04:39:53.192Z,26.70
2023-02-17T04:40:57.335Z,26.80
2023-02-17T04:42:00.266Z,27.10
2023-02-17T04:43:04.327Z,26.80
2023-02-17T04:44:07.365Z,25.60
2023-02-17T04:45:11.225Z,26.30
2023-02-17T04:46:14.320Z,26.10
2023-02-17T04:47:17.442Z,27.30
2023-02-17T04:48:20.549Z,26.20
2023-02-17T04:49:23.515Z,25.70
2023-02-17T04:50:26.838Z,27.50
2023-02-17T04:51:29.766Z,25.50
2023-02-17T04:52:32.823Z,27.50
2023-02-17T04:53:36.262Z,26.60
2023-02-17T04:54:39.154Z,26.30
2023-02-17T04:55:42.331Z,27.40
2023-02-17T04:56:45.322Z,26.80
2023-02-17T04:57:48.176Z,26.80
2023-02-17T04:58:51.452Z,26.60
2023-02-17T04:59:54.344Z,27.30
2023-02-17T05:00:59.228Z,27.70
2023-02-17T05:02:02.322Z,28.10
2023-02-17T05:03:05.328Z,27.80
2023-02-17T05:04:08.751Z,27.00
2023-02-17T05:05:15.297Z,26.80
2023-02-17T05:06:18.316Z,25.20
2023-02-17T05:07:21.328Z,26.20
2023-02-17T05:08:24.715Z,26.40
2023-02-17T05:09:28.168Z,26.60
2023-02-17T05:10:31.361Z,27.30
2023-02-17T05:11:34.383Z,28.10
2023-02-17T05:12:37.350Z,27.60
2023-02-17T05:13:40.240Z,26.20
2023-02-17T05:14:43.485Z,27.00
2023-02-17T05:15:47.142Z,26.30
2023-02-17T05:16:50.130Z,26.60
2023-02-17T05:17:53.047Z,25.60
2023-02-17T05:18:57.118Z,27.80
2023-02-17T05:20:01.278Z,27.00
2023-02-17T05:21:04.435Z,27.30
2023-02-17T05:22:07.406Z,25.80
2023-02-17T05:23:10.436Z,26.20
2023-02-17T05:24:13.348Z,27.10
2023-02-17T05:25:16.588Z,27.30
2023-02-17T05:26:19.495Z,27.00
2023-02-17T05:27:22.671Z,27.30
2023-02-17T05:28:25.921Z,28.00
2023-02-17T05:29:28.871Z,26.50
2023-02-17T05:30:32.034Z,26.50
2023-02-17T05:31:35.079Z,27.10
2023-02-17T05:32:38.057Z,29.00
2023-02-17T05:33:41.019Z,27.10
2023-02-17T05:34:44.388Z,27.90
2023-02-17T05:35:47.696Z,27.00
2023-02-17T05:36:50.675Z,28.00
2023-02-17T05:37:53.799Z,27.70
2023-02-17T05:38:56.816Z,27.80
2023-02-17T05:39:59.700Z,26.60
2023-02-17T05:41:03.326Z,28.30
2023-02-17T05:42:06.236Z,26.90
2023-02-17T05:43:09.060Z,27.10
2023-02-17T05:44:11.893Z,26.60
2023-02-17T05:45:14.841Z,26.60
2023-02-17T05:46:18.094Z,28.40
2023-02-17T05:47:22.133Z,27.20
2023-02-17T05:48:25.056Z,27.60
2023-02-17T05:49:28.037Z,26.90
2023-02-17T05:50:31.053Z,26.70
2023-02-17T05:51:39.107Z,27.40
2023-02-17T05:52:42.030Z,27.10
2023-02-17T05:53:45.269Z,26.90
2023-02-17T05:54:48.106Z,27.60
2023-02-17T05:55:50.998Z,26.70
2023-02-17T05:56:54.208Z,27.20
2023-02-17T05:57:57.194Z,27.10
2023-02-17T05:59:00.708Z,28.60
2023-02-17T06:00:04.978Z,28.70
2023-02-17T06:01:15.176Z,29.30
2023-02-17T06:02:18.490Z,28.90
2023-02-17T06:03:21.444Z,30.90
2023-02-17T06:04:24.509Z,28.30
2023-02-17T06:05:27.565Z,29.80
2023-02-17T06:06:30.499Z,30.70
2023-02-17T06:07:34.095Z,29.30
2023-02-17T06:08:37.508Z,29.60
2023-02-17T06:09:40.433Z,31.60
2023-02-17T06:10:43.697Z,29.60
2023-02-17T06:11:46.613Z,30.10
2023-02-17T06:12:50.014Z,29.60
2023-02-17T06:13:52.966Z,30.70
2023-02-17T06:14:55.982Z,30.80
2023-02-17T06:15:59.062Z,30.60
2023-02-17T06:17:04.098Z,30.70
2023-02-17T06:18:07.344Z,29.90
2023-02-17T06:19:10.366Z,30.60
2023-02-17T06:20:13.442Z,31.30
2023-02-17T06:21:16.573Z,32.60
2023-02-17T06:22:19.537Z,30.80
2023-02-17T06:23:24.407Z,32.20
2023-02-17T06:24:27.482Z,30.80
2023-02-17T06:25:31.386Z,32.40
2023-02-17T06:26:34.509Z,32.90
2023-02-17T06:27:37.391Z,32.40
2023-02-17T06:28:40.715Z,33.00
2023-02-17T06:29:44.561Z,32.80
2023-02-17T06:30:47.486Z,32.00
2023-02-17T06:31:50.626Z,32.70
2023-02-17T06:32:53.658Z,33.30
2023-02-17T06:33:56.703Z,32.30
2023-02-17T06:34:59.581Z,32.10
2023-02-17T06:36:02.722Z,30.30
2023-02-17T06:37:05.705Z,31.40
2023-02-17T06:38:08.662Z,30.70
2023-02-17T06:39:11.842Z,31.50
2023-02-17T06:40:15.180Z,31.40
2023-02-17T06:41:18.047Z,30.50
2023-02-17T06:42:20.946Z,32.00
2023-02-17T06:43:23.824Z,30.00
2023-02-17T06:44:27.315Z,31.20
2023-02-17T06:45:30.246Z,28.50
2023-02-17T06:46:33.259Z,30.00
2023-02-17T06:47:36.687Z,31.30
2023-02-17T06:48:39.624Z,31.80
2023-02-17T06:49:42.929Z,31.30
2023-02-17T06:50:45.920Z,31.20
2023-02-17T06:51:49.023Z,30.50
2023-02-17T06:52:51.940Z,30.30
2023-02-17T06:53:55.753Z,30.70
2023-02-17T06:54:59.019Z,31.20
2023-02-17T06:56:01.939Z,30.70
2023-02-17T06:57:04.833Z,30.90
2023-02-17T06:58:08.491Z,30.50
2023-02-17T06:59:11.538Z,32.40
2023-02-17T07:00:15.200Z,29.20
2023-02-17T07:01:21.089Z,28.60
2023-02-17T07:02:24.405Z,29.30
2023-02-17T07:03:27.421Z,30.10
2023-02-17T07:04:30.396Z,29.60
2023-02-17T07:05:37.065Z,30.80
2023-02-17T07:06:40.088Z,29.50
2023-02-17T07:07:43.080Z,30.80
2023-02-17T07:08:46.016Z,30.60
2023-02-17T07:09:48.937Z,30.70
2023-02-17T07:10:52.163Z,30.40
2023-02-17T07:11:54.982Z,30.80
2023-02-17T07:12:57.866Z,30.40
2023-02-17T07:14:00.929Z,28.50
2023-02-17T07:15:04.368Z,30.20
2023-02-17T07:16:09.304Z,28.20
2023-02-17T07:17:12.490Z,28.30
2023-02-17T07:18:15.396Z,28.00
2023-02-17T07:19:18.360Z,28.80
2023-02-17T07:20:21.288Z,28.20
2023-02-17T07:21:25.021Z,28.10
2023-02-17T07:22:27.960Z,27.20
2023-02-17T07:23:31.755Z,28.70
2023-02-17T07:24:34.705Z,27.00
2023-02-17T07:25:37.704Z,28.90
2023-02-17T07:26:41.483Z,27.50
2023-02-17T07:27:44.419Z,27.60
2023-02-17T07:28:47.399Z,27.70
2023-02-17T07:29:50.227Z,27.80
2023-02-17T07:30:53.099Z,28.10
2023-02-17T07:31:56.269Z,26.50
2023-02-17T07:32:59.137Z,26.80
2023-02-17T07:34:03.697Z,25.50
2023-02-17T07:35:06.717Z,26.90
2023-02-17T07:36:12.821Z,26.20
2023-02-17T07:37:16.102Z,24.90
2023-02-17T07:38:18.954Z,25.10
2023-02-17T07:39:21.843Z,25.00
2023-02-17T07:40:25.758Z,23.30
2023-02-17T07:41:28.773Z,24.10
2023-02-17T07:42:32.302Z,24.00
2023-02-17T07:43:35.780Z,23.90
2023-02-17T07:44:39.721Z,22.80
2023-02-17T07:45:42.723Z,20.60
2023-02-17T07:46:45.780Z,22.60
2023-02-17T07:47:48.934Z,22.30
2023-02-17T07:48:52.351Z,21.60
2023-02-17T07:49:56.030Z,21.30
2023-02-17T07:51:07.377Z,21.50
2023-02-17T07:52:10.637Z,20.00
2023-02-17T07:53:13.796Z,19.70
2023-02-17T07:54:17.365Z,20.10
2023-02-17T07:55:20.235Z,18.20
2023-02-17T07:56:24.270Z,17.90
2023-02-17T07:57:27.569Z,18.30
2023-02-17T07:58:35.047Z,18.10
2023-02-17T07:59:37.942Z,18.30
2023-02-17T08:00:40.844Z,18.60
2023-02-17T08:01:43.797Z,20.40
2023-02-17T08:02:47.053Z,19.50
2023-02-17T08:03:51.260Z,19.80
2023-02-17T08:04:54.118Z,20.20
2023-02-17T08:05:57.021Z,19.20
2023-02-17T08:07:00.056Z,19.10
2023-02-17T08:08:22.053Z,19.20
2023-02-17T08:09:43.804Z,19.40
2023-02-17T08:11:05.635Z,18.90
2023-02-17T08:12:35.932Z,17.90
2023-02-17T08:13:38.985Z,18.60
2023-02-17T08:14:41.990Z,19.50
2023-02-17T08:15:45.023Z,19.90
2023-02-17T08:16:47.985Z,19.80
2023-02-17T08:17:51.242Z,19.90
2023-02-17T08:18:55.619Z,20.20
2023-02-17T08:20:01.951Z,20.50
2023-02-17T08:21:07.102Z,19.30
2023-02-17T08:22:10.209Z,19.40
2023-02-17T08:23:13.182Z,18.30
2023-02-17T08:24:22.120Z,19.30
2023-02-17T08:25:25.628Z,17.90
2023-02-17T08:26:28.880Z,19.50
2023-02-17T08:27:32.309Z,18.80
2023-02-17T08:28:35.390Z,18.70
2023-02-17T08:29:38.321Z,18.00
2023-02-17T08:30:41.537Z,19.00
2023-02-17T08:31:44.960Z,18.00
2023-02-17T08:32:47.982Z,19.30
2023-02-17T08:33:52.017Z,18.60
2023-02-17T08:34:58.330Z,19.40
2023-02-17T08:36:07.580Z,18.90
2023-02-17T08:37:11.230Z,20.20
2023-02-17T08:38:15.407Z,19.20
2023-02-17T08:39:19.060Z,18.60
2023-02-17T08:40:22.162Z,19.30
2023-02-17T08:41:32.496Z,20.80
2023-02-17T08:42:35.525Z,19.20
2023-02-17T08:43:38.444Z,20.00
2023-02-17T08:44:41.764Z,20.60
2023-02-17T08:45:44.994Z,20.50
2023-02-17T08:46:49.837Z,20.70
2023-02-17T08:47:52.767Z,21.10
2023-02-17T08:48:56.588Z,19.90
2023-02-17T08:49:59.662Z,21.50
2023-02-17T08:51:03.380Z,21.30
2023-02-17T08:52:06.413Z,21.90
2023-02-17T08:53:09.291Z,21.90
2023-02-17T08:54:13.014Z,21.90
2023-02-17T08:55:19.129Z,21.90
2023-02-17T08:56:23.394Z,21.80
2023-02-17T08:57:27.193Z,21.50
2023-02-17T08:58:30.167Z,23.10
2023-02-17T08:59:33.138Z,23.30
2023-02-17T09:00:36.473Z,22.30
2023-02-17T09:01:40.532Z,22.30
2023-02-17T09:02:45.173Z,21.90
2023-02-17T09:03:49.996Z,22.70
2023-02-17T09:04:53.031Z,21.50
2023-02-17T09:05:57.938Z,22.00
2023-02-17T09:07:01.271Z,22.80
2023-02-17T09:08:04.457Z,22.50
2023-02-17T09:09:10.250Z,22.10
2023-02-17T09:10:13.695Z,21.60
2023-02-17T09:11:19.708Z,22.00
2023-02-17T09:12:22.618Z,22.40
2023-02-17T09:13:27.021Z,22.60
2023-02-17T09:14:30.085Z,22.30
2023-02-17T09:15:33.047Z,21.60
2023-02-17T09:16:37.064Z,21.90
2023-02-17T09:17:41.230Z,23.00
2023-02-17T09:18:44.634Z,22.50
2023-02-17T09:19:48.484Z,22.80
2023-02-17T09:20:51.918Z,24.40
2023-02-17T09:21:55.940Z,23.70
2023-02-17T09:22:59.511Z,22.60
2023-02-17T09:24:02.550Z,24.60
2023-02-17T09:25:06.012Z,24.20
2023-02-17T09:26:12.031Z,24.90
2023-02-17T09:27:15.194Z,24.70
2023-02-17T09:28:18.269Z,24.90
2023-02-17T09:29:21.171Z,25.10
2023-02-17T09:30:24.341Z,25.30
2023-02-17T09:31:29.190Z,24.40
2023-02-17T09:32:32.397Z,24.40
2023-02-17T09:33:35.759Z,24.40
2023-02-17T09:34:40.125Z,26.20
2023-02-17T09:35:44.581Z,25.60
2023-02-17T09:36:47.593Z,24.60
2023-02-17T09:37:50.802Z,25.70
2023-02-17T09:38:54.244Z,24.40
2023-02-17T09:39:57.158Z,25.90
2023-02-17T09:41:17.064Z,25.20
2023-02-17T09:42:24.551Z,25.90
2023-02-17T09:43:31.194Z,25.50
2023-02-17T09:44:51.961Z,24.80
2023-02-17T09:46:19.287Z,25.30
2023-02-17T09:47:29.916Z,23.10
2023-02-17T09:48:35.860Z,25.20
2023-02-17T09:49:44.858Z,25.10
2023-02-17T09:50:52.359Z,24.10
2023-02-17T09:52:19.473Z,26.40
2023-02-17T09:53:45.145Z,25.50
2023-02-17T09:54:57.493Z,24.40
2023-02-17T09:56:05.700Z,23.10
2023-02-17T09:57:19.850Z,25.40
2023-02-17T09:59:00.952Z,23.00
2023-02-17T10:00:10.794Z,24.90
2023-02-17T10:01:20.798Z,24.60
2023-02-17T10:02:41.626Z,25.40
2023-02-17T10:03:50.531Z,24.30
2023-02-17T10:04:56.453Z,23.60
2023-02-17T10:06:14.322Z,23.30
2023-02-17T10:07:33.123Z,24.90
2023-02-17T10:08:45.560Z,24.70
2023-02-17T10:09:59.061Z,24.50
2023-02-17T10:11:17.091Z,25.80
2023-02-17T10:12:30.367Z,25.00
2023-02-17T10:13:36.446Z,25.30
2023-02-17T10:14:55.367Z,25.50
2023-02-17T10:16:03.302Z,24.50
2023-02-17T10:17:13.546Z,28.00
2023-02-17T10:18:25.404Z,26.40
2023-02-17T10:19:33.788Z,27.00
2023-02-17T10:20:55.729Z,27.50
2023-02-17T10:22:19.829Z,26.00
2023-02-17T10:23:26.245Z,26.30
2023-02-17T10:24:29.369Z,26.60
2023-02-17T10:26:10.172Z,26.50
2023-02-17T10:27:19.599Z,27.20
2023-02-17T10:28:45.671Z,25.80
2023-02-17T10:30:13.350Z,26.50
2023-02-17T10:31:45.621Z,27.20
2023-02-17T10:33:13.243Z,25.20
2023-02-17T10:34:37.519Z,26.20
2023-02-17T10:35:57.874Z,26.70
2023-02-17T10:37:05.428Z,26.60
2023-02-17T10:38:17.790Z,27.40
2023-02-17T10:39:50.884Z,27.20
2023-02-17T10:40:56.318Z,27.30
2023-02-17T10:42:00.423Z,26.40
2023-02-17T10:43:07.759Z,27.60
2023-02-17T10:44:19.164Z,27.50
2023-02-17T10:45:38.368Z,27.00
2023-02-17T10:46:43.439Z,27.50
2023-02-17T10:47:47.082Z,27.00
2023-02-17T10:48:55.800Z,28.10
2023-02-17T10:50:01.395Z,26.20
2023-02-17T10:51:05.397Z,26.00
2023-02-17T10:52:19.146Z,26.80
2023-02-17T10:53:31.770Z,27.40
2023-02-17T10:55:11.330Z,26.40
2023-02-17T10:56:32.790Z,25.50
2023-02-17T10:59:12.425Z,26.30
2023-02-17T11:00:17.840Z,25.40
2023-02-17T11:01:23.340Z,23.00
2023-02-17T11:02:41.292Z,24.30
2023-02-17T11:03:44.438Z,24.90
2023-02-17T11:04:55.192Z,24.60
2023-02-17T11:05:59.447Z,24.20
2023-02-17T11:07:03.404Z,23.50
2023-02-17T11:08:20.940Z,24.10
2023-02-17T11:09:32.811Z,23.20
2023-02-17T11:10:40.269Z,24.30
2023-02-17T11:11:53.361Z,24.20
2023-02-17T11:12:58.740Z,22.80
2023-02-17T11:14:23.993Z,21.90
2023-02-17T11:15:32.225Z,21.30
2023-02-17T11:16:45.843Z,21.10
2023-02-17T11:17:49.461Z,21.70
2023-02-17T11:18:53.816Z,21.50
2023-02-17T11:20:05.076Z,21.30
2023-02-17T11:21:11.616Z,22.20
2023-02-17T11:22:32.047Z,19.90
2023-02-17T11:23:36.274Z,19.80
2023-02-17T11:24:39.207Z,21.30
2023-02-17T11:25:43.826Z,20.30
2023-02-17T11:27:06.000Z,20.50
2023-02-17T11:28:14.898Z,21.00
2023-02-17T11:29:22.435Z,22.60
2023-02-17T11:30:27.757Z,19.30
2023-02-17T11:31:31.853Z,20.50
2023-02-17T11:32:36.205Z,21.00
2023-02-17T11:33:40.553Z,21.20
2023-02-17T11:34:44.441Z,21.40
2023-02-17T11:35:54.498Z,20.40
2023-02-17T11:37:14.218Z,19.20
2023-02-17T11:38:23.599Z,21.50
2023-02-17T11:39:27.091Z,20.50
2023-02-17T11:40:32.558Z,20.30
2023-02-17T11:41:40.087Z,21.20
2023-02-17T11:42:43.309Z,21.10
2023-02-17T11:44:15.196Z,22.20
2023-02-17T11:45:23.178Z,20.90
2023-02-17T11:46:35.501Z,21.40
2023-02-17T11:47:53.495Z,21.60
2023-02-17T11:49:09.498Z,20.30
2023-02-17T11:50:35.303Z,21.80
2023-02-17T11:51:59.999Z,21.10
2023-02-17T11:53:26.870Z,22.00
2023-02-17T11:55:00.838Z,21.00
2023-02-17T11:56:18.047Z,20.60
2023-02-17T11:57:45.356Z,20.00
2023-02-17T11:59:14.486Z,21.10
2023-02-17T12:00:22.595Z,20.70
2023-02-17T12:01:44.604Z,20.30
2023-02-17T12:03:06.160Z,20.00
2023-02-17T12:04:26.760Z,19.80
2023-02-17T12:05:36.021Z,20.30
2023-02-17T12:07:04.580Z,20.80
2023-02-17T12:08:10.435Z,18.10
2023-02-17T12:09:27.359Z,19.30
2023-02-17T12:10:48.569Z,19.30
2023-02-17T12:11:59.428Z,19.10
2023-02-17T12:14:22.321Z,19.00
2023-02-17T12:15:28.504Z,18.40
2023-02-17T12:16:58.470Z,17.80
2023-02-17T12:18:20.856Z,17.80
2023-02-17T12:19:38.845Z,16.90
2023-02-17T12:21:06.135Z,16.50
2023-02-17T12:22:21.961Z,16.00
2023-02-17T12:23:36.348Z,16.30
2023-02-17T12:24:48.077Z,14.90
2023-02-17T12:25:57.326Z,15.30
2023-02-17T12:27:31.395Z,15.50
2023-02-17T12:28:49.884Z,14.90
2023-02-17T12:30:11.806Z,16.30
2023-02-17T12:31:14.802Z,14.50
2023-02-17T12:32:33.426Z,15.00
2023-02-17T12:33:52.192Z,15.20
2023-02-17T12:35:16.373Z,15.20
2023-02-17T12:36:21.035Z,14.80
2023-02-17T12:37:38.865Z,15.60
2023-02-17T12:38:46.867Z,13.40
2023-02-17T12:39:56.351Z,13.60
2023-02-17T12:41:17.523Z,14.30
2023-02-17T12:42:26.289Z,13.40
2023-02-17T12:43:36.546Z,13.80
2023-02-17T12:44:46.172Z,14.20
2023-02-17T12:45:51.346Z,14.10
2023-02-17T12:46:58.618Z,13.20
2023-02-17T12:48:07.420Z,13.80
2023-02-17T12:49:30.376Z,14.30
2023-02-17T12:50:36.687Z,15.00
2023-02-17T12:52:07.416Z,14.20
2023-02-17T12:54:26.621Z,14.00
2023-02-17T12:55:48.935Z,14.20
2023-02-17T12:57:10.350Z,13.30
2023-02-17T12:58:18.349Z,13.00
2023-02-17T12:59:46.211Z,13.00
2023-02-17T13:01:09.568Z,11.80
2023-02-17T13:02:15.449Z,12.60
2023-02-17T13:03:19.124Z,13.80
2023-02-17T13:04:24.985Z,13.40
2023-02-17T13:05:34.806Z,13.70
2023-02-17T13:06:43.237Z,12.70
2023-02-17T13:07:52.530Z,13.40
2023-02-17T13:09:22.766Z,13.00
2023-02-17T13:10:30.826Z,13.50
2023-02-17T13:11:36.169Z,13.40
2023-02-17T13:12:41.271Z,13.70
2023-02-17T13:13:44.465Z,12.30
2023-02-17T13:14:50.722Z,11.90
2023-02-17T13:16:08.042Z,11.60
2023-02-17T13:17:52.163Z,11.10
2023-02-17T13:18:55.466Z,11.40
2023-02-17T13:20:07.548Z,9.60
2023-02-17T13:21:27.476Z,11.00
2023-02-17T13:22:30.718Z,11.30
2023-02-17T13:23:41.135Z,11.20
2023-02-17T13:24:54.342Z,10.90
2023-02-17T13:26:27.339Z,11.60
2023-02-17T13:27:34.950Z,10.60
2023-02-17T13:28:40.545Z,11.30
2023-02-17T13:29:43.771Z,10.90
2023-02-17T13:30:48.795Z,10.90
2023-02-17T13:32:03.615Z,9.60
2023-02-17T13:33:26.584Z,10.50
2023-02-17T13:34:34.824Z,10.40
2023-02-17T13:35:37.818Z,10.50
2023-02-17T13:36:40.958Z,11.20
2023-02-17T13:37:46.057Z,9.90
2023-02-17T13:39:01.339Z,10.70
2023-02-17T13:40:16.614Z,10.10
2023-02-17T13:41:19.637Z,9.70
2023-02-17T13:42:44.303Z,9.50
2023-02-17T13:43:47.490Z,9.60
2023-02-17T13:44:51.433Z,9.70
2023-02-17T13:46:04.085Z,10.10
2023-02-17T13:47:18.350Z,9.60
2023-02-17T13:48:21.641Z,10.20
2023-02-17T13:49:27.811Z,9.20
2023-02-17T13:50:49.033Z,9.80
2023-02-17T13:51:52.066Z,9.90
2023-02-17T13:52:56.448Z,9.70
2023-02-17T13:54:09.526Z,9.20
2023-02-17T13:56:51.350Z,8.70
2023-02-17T13:59:18.517Z,8.60
2023-02-17T14:00:28.809Z,9.20
2023-02-17T14:01:31.856Z,9.10
2023-02-17T14:02:38.754Z,9.40
2023-02-17T14:03:47.051Z,9.20
2023-02-17T14:04:50.139Z,9.80
2023-02-17T14:05:59.127Z,9.40
2023-02-17T14:07:04.952Z,9.60
2023-02-17T14:08:21.287Z,9.00
2023-02-17T14:09:32.542Z,8.70
2023-02-17T14:10:36.551Z,8.20
2023-02-17T14:11:41.420Z,8.40
2023-02-17T14:12:44.892Z,7.70
2023-02-17T14:13:51.157Z,8.10
2023-02-17T14:14:54.485Z,7.70
2023-02-17T14:15:59.580Z,7.80
2023-02-17T14:17:27.041Z,8.50
2023-02-17T14:18:34.131Z,8.00
2023-02-17T14:19:46.773Z,7.30
2023-02-17T14:21:00.858Z,8.00
2023-02-17T14:22:05.563Z,7.70
2023-02-17T14:23:12.946Z,7.20
2023-02-17T14:24:37.201Z,6.90
2023-02-17T14:25:47.080Z,6.20
2023-02-17T14:26:50.358Z,6.40
2023-02-17T14:27:53.430Z,6.50
2023-02-17T14:29:02.796Z,6.60
2023-02-17T14:30:06.750Z,6.30
2023-02-17T14:31:20.402Z,7.40
2023-02-17T14:32:32.737Z,6.40
2023-02-17T14:33:35.968Z,5.90
2023-02-17T14:34:38.859Z,6.20
2023-02-17T14:35:58.431Z,7.10
2023-02-17T14:37:21.117Z,6.20
2023-02-17T14:38:37.502Z,5.70
2023-02-17T14:39:40.865Z,5.80
2023-02-17T14:40:43.705Z,7.00